createdAt,value
2018-12-26T00:02:14.541Z,12.20
2018-12-26T00:05:02.445Z,12.10
2018-12-26T00:07:50.788Z,13.05
2018-12-26T00:10:38.754Z,13.58
2018-12-26T00:13:26.681Z,13.68
2018-12-26T00:16:14.566Z,13.75
2018-12-26T00:19:02.454Z,13.85
2018-12-26T00:21:50.561Z,13.58
2018-12-26T00:24:38.951Z,12.20
2018-12-26T00:27:27.100Z,12.47
2018-12-26T00:30:07.873Z,11.80
2018-12-26T00:32:48.289Z,11.95
2018-12-26T00:35:29.045Z,12.15
2018-12-26T00:40:58.241Z,12.23
2018-12-26T00:46:23.088Z,11.53
2018-12-26T00:51:52.357Z,12.03
2018-12-26T00:54:33.766Z,11.50
2018-12-26T00:57:15.794Z,11.12
2018-12-26T00:59:56.864Z,11.88
2018-12-26T01:02:38.171Z,11.05
2018-12-26T01:05:19.089Z,11.50
2018-12-26T01:08:00.149Z,11.33
2018-12-26T01:10:40.669Z,11.00
2018-12-26T01:13:21.685Z,11.18
2018-12-26T01:21:49.933Z,11.30
2018-12-26T01:30:12.231Z,12.43
2018-12-26T01:32:53.361Z,11.53
2018-12-26T01:35:34.442Z,11.65
2018-12-26T01:41:04.092Z,12.63
2018-12-26T01:43:44.753Z,12.07
2018-12-26T01:49:16.173Z,11.75
2018-12-26T01:51:56.465Z,12.55
2018-12-26T01:54:37.097Z,11.65
2018-12-26T01:57:17.617Z,12.30
2018-12-26T01:59:58.464Z,11.97
2018-12-26T02:02:39.102Z,12.33
2018-12-26T02:05:19.641Z,11.85
2018-12-26T02:08:00.429Z,11.97
2018-12-26T02:10:41.009Z,11.93
2018-12-26T02:13:22.005Z,12.37
2018-12-26T02:16:02.366Z,12.07
2018-12-26T02:18:43.490Z,10.95
2018-12-26T02:21:24.378Z,12.00
2018-12-26T02:24:04.930Z,10.65
2018-12-26T02:26:45.833Z,10.93
2018-12-26T02:29:26.377Z,11.50
2018-12-26T02:32:07.044Z,10.98
2018-12-26T02:34:47.360Z,11.12
2018-12-26T02:37:28.051Z,11.57
2018-12-26T02:40:08.674Z,11.68
2018-12-26T02:42:50.206Z,10.85
2018-12-26T02:45:30.893Z,10.88
2018-12-26T02:48:11.962Z,11.40
2018-12-26T02:50:52.474Z,11.97
2018-12-26T02:53:33.101Z,10.38
2018-12-26T02:56:13.970Z,10.30
2018-12-26T02:58:55.050Z,11.35
2018-12-26T03:01:35.758Z,10.53
2018-12-26T03:04:16.319Z,10.68
2018-12-26T03:06:57.378Z,11.05
2018-12-26T03:09:38.133Z,10.58
2018-12-26T03:12:18.939Z,10.43
2018-12-26T03:14:59.274Z,10.65
2018-12-26T03:17:39.928Z,11.43
2018-12-26T03:20:20.501Z,11.20
2018-12-26T03:23:01.365Z,10.95
2018-12-26T03:25:42.733Z,10.80
2018-12-26T03:28:23.436Z,11.22
2018-12-26T03:31:04.230Z,10.58
2018-12-26T03:33:45.360Z,10.72
2018-12-26T03:36:26.593Z,11.33
2018-12-26T03:39:07.017Z,10.05
2018-12-26T03:41:48.033Z,10.28
2018-12-26T03:44:28.725Z,11.03
2018-12-26T03:47:09.833Z,10.90
2018-12-26T03:49:50.897Z,11.10
2018-12-26T03:52:32.177Z,11.38
2018-12-26T03:55:12.631Z,11.10
2018-12-26T03:57:53.481Z,10.72
2018-12-26T04:00:34.317Z,11.73
2018-12-26T04:03:15.051Z,12.00
2018-12-26T04:05:55.910Z,11.75
2018-12-26T04:08:37.138Z,11.80
2018-12-26T04:11:17.888Z,15.72
2018-12-26T04:13:58.228Z,15.43
2018-12-26T04:16:39.166Z,16.32
2018-12-26T04:19:20.153Z,21.23
2018-12-26T04:22:01.015Z,21.05
2018-12-26T04:24:41.766Z,22.22
2018-12-26T04:27:22.318Z,23.55
2018-12-26T04:30:02.919Z,25.15
2018-12-26T04:32:42.078Z,22.70
2018-12-26T04:38:24.913Z,23.00
2018-12-26T04:41:13.057Z,21.40
2018-12-26T04:44:00.933Z,20.43
2018-12-26T04:49:42.547Z,21.62
2018-12-26T04:52:30.704Z,21.68
2018-12-26T04:55:18.597Z,21.50
2018-12-26T04:58:06.470Z,21.20
2018-12-26T05:00:54.362Z,21.82
2018-12-26T05:03:42.460Z,20.20
2018-12-26T05:06:30.585Z,20.92
2018-12-26T05:09:18.929Z,22.50
2018-12-26T05:12:06.813Z,23.62
2018-12-26T05:14:55.174Z,22.13
2018-12-26T05:17:43.273Z,21.05
2018-12-26T05:20:31.454Z,20.72
2018-12-26T05:23:19.560Z,19.80
2018-12-26T05:26:07.441Z,19.73
2018-12-26T05:28:48.018Z,18.17
2018-12-26T05:31:29.525Z,18.40
2018-12-26T05:34:10.029Z,18.95
2018-12-26T05:36:50.919Z,17.80
2018-12-26T05:42:21.681Z,19.90
2018-12-26T05:45:02.353Z,19.50
2018-12-26T05:47:43.374Z,18.98
2018-12-26T05:53:12.693Z,18.90
2018-12-26T05:58:41.401Z,20.02
2018-12-26T06:01:24.810Z,20.17
2018-12-26T06:04:05.361Z,18.50
2018-12-26T06:06:46.455Z,18.87
2018-12-26T06:12:12.649Z,18.17
2018-12-26T06:17:42.762Z,18.70
2018-12-26T06:20:24.389Z,18.12
2018-12-26T06:23:05.501Z,17.98
2018-12-26T06:28:31.250Z,18.25
2018-12-26T06:34:02.721Z,19.20
2018-12-26T06:39:35.556Z,17.82
2018-12-26T06:42:17.127Z,17.95
2018-12-26T06:47:47.178Z,17.95
2018-12-26T06:53:17.930Z,20.17
2018-12-26T06:55:58.942Z,18.67
2018-12-26T06:58:42.365Z,19.48
2018-12-26T07:01:23.490Z,19.35
2018-12-26T07:04:04.165Z,19.62
2018-12-26T07:09:33.658Z,19.82
2018-12-26T07:15:04.471Z,19.92
2018-12-26T07:17:46.054Z,20.37
2018-12-26T07:23:12.110Z,19.35
2018-12-26T07:28:41.991Z,20.72
2018-12-26T07:34:08.354Z,19.65
2018-12-26T07:39:33.406Z,19.62
2018-12-26T07:44:58.421Z,18.98
2018-12-26T07:50:23.569Z,20.57
2018-12-26T07:53:04.121Z,19.67
2018-12-26T07:55:44.839Z,19.52
2018-12-26T07:58:26.334Z,20.60
2018-12-26T08:01:06.872Z,21.48
2018-12-26T08:06:31.501Z,19.65
2018-12-26T08:09:12.561Z,19.42
2018-12-26T08:11:53.265Z,19.67
2018-12-26T08:14:34.053Z,19.70
2018-12-26T08:17:15.609Z,18.37
2018-12-26T08:19:56.193Z,20.57
2018-12-26T08:22:37.075Z,18.25
2018-12-26T08:25:17.705Z,17.85
2018-12-26T08:27:58.745Z,17.65
2018-12-26T08:30:39.874Z,18.25
2018-12-26T08:33:20.495Z,19.67
2018-12-26T08:38:57.765Z,18.87
2018-12-26T08:44:33.893Z,17.87
2018-12-26T08:53:02.829Z,18.65
2018-12-26T08:55:44.730Z,18.20
2018-12-26T09:01:10.474Z,16.48
2018-12-26T09:06:37.129Z,18.20
2018-12-26T09:12:02.018Z,19.02
2018-12-26T09:14:55.322Z,18.23
2018-12-26T09:17:43.469Z,16.87
2018-12-26T09:20:31.589Z,17.00
2018-12-26T09:23:19.702Z,17.70
2018-12-26T09:26:08.275Z,17.35
2018-12-26T09:28:56.179Z,17.48
2018-12-26T09:31:37.777Z,17.87
2018-12-26T09:34:18.169Z,16.97
2018-12-26T09:36:58.778Z,16.62
2018-12-26T09:39:39.909Z,16.82
2018-12-26T09:42:21.203Z,14.98
2018-12-26T09:45:01.554Z,15.58
2018-12-26T09:47:42.101Z,16.30
2018-12-26T09:50:23.197Z,16.05
2018-12-26T09:53:03.489Z,16.35
2018-12-26T09:55:44.097Z,15.43
2018-12-26T09:58:24.568Z,15.50
2018-12-26T10:01:05.394Z,14.80
2018-12-26T10:03:45.973Z,16.05
2018-12-26T10:06:26.910Z,16.42
2018-12-26T10:09:08.145Z,15.98
2018-12-26T10:11:49.226Z,16.95
2018-12-26T10:14:29.917Z,15.48
2018-12-26T10:17:10.969Z,15.95
2018-12-26T10:19:51.893Z,16.12
2018-12-26T10:22:32.244Z,16.55
2018-12-26T10:25:12.729Z,16.17
2018-12-26T10:27:53.713Z,15.55
2018-12-26T10:30:34.169Z,15.08
2018-12-26T10:33:14.721Z,14.28
2018-12-26T10:35:55.253Z,15.35
2018-12-26T10:38:36.522Z,14.23
2018-12-26T10:41:18.213Z,13.48
2018-12-26T10:43:58.738Z,14.03
2018-12-26T10:46:38.974Z,14.20
2018-12-26T10:49:19.465Z,13.13
2018-12-26T10:51:59.994Z,13.88
2018-12-26T10:54:41.305Z,14.28
2018-12-26T10:57:22.062Z,14.75
2018-12-26T11:00:02.797Z,13.32
2018-12-26T11:02:43.353Z,13.15
2018-12-26T11:05:29.460Z,12.37
2018-12-26T11:08:07.143Z,12.23
2018-12-26T11:10:47.782Z,12.15
2018-12-26T11:13:28.713Z,11.38
2018-12-26T11:16:09.933Z,12.00
2018-12-26T11:18:51.049Z,12.95
2018-12-26T11:21:31.689Z,12.70
2018-12-26T11:24:12.261Z,12.65
2018-12-26T11:26:53.538Z,13.93
2018-12-26T11:29:34.830Z,13.75
2018-12-26T11:32:16.310Z,12.70
2018-12-26T11:34:56.622Z,13.68
2018-12-26T11:37:36.934Z,13.93
2018-12-26T11:40:17.727Z,14.87
2018-12-26T11:42:58.428Z,14.70
2018-12-26T11:45:38.918Z,15.38
2018-12-26T11:48:19.889Z,15.10
2018-12-26T11:51:00.990Z,13.93
2018-12-26T11:53:42.217Z,11.83
2018-12-26T11:56:23.214Z,12.80
2018-12-26T11:59:03.974Z,14.00
2018-12-26T12:01:45.392Z,12.68
2018-12-26T12:04:25.942Z,13.05
2018-12-26T12:07:06.777Z,11.22
2018-12-26T12:09:47.494Z,12.33
2018-12-26T12:12:27.757Z,12.37
2018-12-26T12:15:08.438Z,14.90
2018-12-26T12:17:49.213Z,14.60
2018-12-26T12:23:20.462Z,13.95
2018-12-26T12:26:02.521Z,15.38
2018-12-26T12:31:29.442Z,14.55
2018-12-26T12:36:56.242Z,15.53
2018-12-26T12:39:37.451Z,17.42
2018-12-26T12:42:18.668Z,16.55
2018-12-26T12:44:59.226Z,15.68
2018-12-26T12:47:39.981Z,15.65
2018-12-26T12:50:20.546Z,15.72
2018-12-26T12:53:01.321Z,15.23
2018-12-26T12:55:42.674Z,15.50
2018-12-26T12:58:23.357Z,15.53
2018-12-26T13:01:04.205Z,16.42
2018-12-26T13:03:46.612Z,16.62
2018-12-26T13:06:27.389Z,16.35
2018-12-26T13:09:07.893Z,16.73
2018-12-26T13:11:48.758Z,17.32
2018-12-26T13:14:29.333Z,17.45
2018-12-26T13:17:10.653Z,16.65
2018-12-26T13:19:51.950Z,16.73
2018-12-26T13:22:32.713Z,17.07
2018-12-26T13:25:13.837Z,18.27
2018-12-26T13:27:54.797Z,17.65
2018-12-26T13:30:35.362Z,19.07
2018-12-26T13:33:16.225Z,18.02
2018-12-26T13:35:57.010Z,19.65
2018-12-26T13:38:37.688Z,19.62
2018-12-26T13:44:08.103Z,18.70
2018-12-26T13:46:50.019Z,20.85
2018-12-26T13:49:30.982Z,19.75
2018-12-26T13:54:57.778Z,19.73
2018-12-26T13:57:38.952Z,20.08
2018-12-26T14:00:19.901Z,19.73
2018-12-26T14:02:59.859Z,19.40
2018-12-26T14:05:42.378Z,20.08
2018-12-26T14:08:23.317Z,21.45
2018-12-26T14:11:04.022Z,19.95
2018-12-26T14:16:33.769Z,21.90
2018-12-26T14:19:14.666Z,21.27
2018-12-26T14:24:43.474Z,22.65
2018-12-26T14:27:29.359Z,23.18
2018-12-26T14:30:11.066Z,22.98
2018-12-26T14:32:48.804Z,22.60
2018-12-26T14:38:15.446Z,20.55
2018-12-26T14:40:56.402Z,22.45
2018-12-26T14:46:22.498Z,22.67
2018-12-26T14:51:48.796Z,23.83
2018-12-26T14:54:30.014Z,23.35
2018-12-26T14:57:11.782Z,22.87
2018-12-26T14:59:52.813Z,22.05
2018-12-26T15:05:18.985Z,20.77
2018-12-26T15:10:48.829Z,21.97
2018-12-26T15:13:30.121Z,23.25
2018-12-26T15:16:10.441Z,23.70
2018-12-26T15:21:41.833Z,24.30
2018-12-26T15:27:11.561Z,24.05
2018-12-26T15:32:41.422Z,23.15
2018-12-26T15:35:22.695Z,24.45
2018-12-26T15:38:03.945Z,24.98
2018-12-26T15:40:45.954Z,24.77
2018-12-26T15:43:15.001Z,26.27
2018-12-26T15:46:03.358Z,25.12
2018-12-26T15:49:06.178Z,25.92
2018-12-26T15:54:38.868Z,25.30
2018-12-26T15:57:42.071Z,24.50
2018-12-26T16:00:18.508Z,26.10
2018-12-26T16:06:02.493Z,25.45
2018-12-26T16:08:51.524Z,24.55
2018-12-26T16:11:39.676Z,26.70
2018-12-26T16:14:28.026Z,25.12
2018-12-26T16:17:15.917Z,25.05
2018-12-26T16:20:04.265Z,27.95
2018-12-26T16:22:52.164Z,26.42
2018-12-26T16:25:40.041Z,24.02
2018-12-26T16:28:28.177Z,25.32
2018-12-26T16:33:54.051Z,24.82
2018-12-26T16:36:34.761Z,23.45
2018-12-26T16:39:15.169Z,23.83
2018-12-26T16:41:55.826Z,23.57
2018-12-26T16:44:36.188Z,22.87
2018-12-26T16:47:16.817Z,26.73
2018-12-26T16:49:57.577Z,24.75
2018-12-26T16:52:38.070Z,25.32
2018-12-26T16:55:18.942Z,25.57
2018-12-26T16:57:59.913Z,25.95
2018-12-26T17:00:40.470Z,25.85
2018-12-26T17:03:21.701Z,26.23
2018-12-26T17:06:02.513Z,26.95
2018-12-26T17:08:43.366Z,26.45
2018-12-26T17:17:09.816Z,26.35
2018-12-26T17:28:34.798Z,25.97
2018-12-26T17:34:03.997Z,25.10
2018-12-26T17:42:30.284Z,27.20
2018-12-26T17:45:11.386Z,25.17
2018-12-26T17:50:42.142Z,25.97
2018-12-26T17:56:11.421Z,27.42
2018-12-26T17:58:51.942Z,26.00
2018-12-26T18:01:33.056Z,26.05
2018-12-26T18:04:13.740Z,25.57
2018-12-26T18:06:54.362Z,26.55
2018-12-26T18:09:35.666Z,25.57
2018-12-26T18:12:16.374Z,25.68
2018-12-26T18:14:57.193Z,25.00
2018-12-26T18:17:40.258Z,25.75
2018-12-26T18:20:21.057Z,27.45
2018-12-26T18:23:02.255Z,26.97
2018-12-26T18:25:43.170Z,26.93
2018-12-26T18:28:24.034Z,28.57
2018-12-26T18:31:05.286Z,27.58
2018-12-26T18:33:46.109Z,30.23
2018-12-26T18:36:27.660Z,27.55
2018-12-26T18:39:08.454Z,26.90
2018-12-26T18:41:49.666Z,30.55
2018-12-26T18:44:30.653Z,29.07
2018-12-26T18:47:11.433Z,32.63
2018-12-26T18:49:52.402Z,31.68
2018-12-26T18:52:33.189Z,30.65
2018-12-26T18:55:14.343Z,29.55
2018-12-26T18:57:55.702Z,27.25
2018-12-26T19:00:35.994Z,28.40
2018-12-26T19:03:16.925Z,27.67
2018-12-26T19:05:57.381Z,27.82
2018-12-26T19:08:38.068Z,30.20
2018-12-26T19:11:19.185Z,28.30
2018-12-26T19:13:59.662Z,27.65
2018-12-26T19:16:40.389Z,26.90
2018-12-26T19:19:21.505Z,28.23
2018-12-26T19:22:06.804Z,28.95
2018-12-26T19:24:47.678Z,28.60
2018-12-26T19:27:28.613Z,27.20
2018-12-26T19:30:09.357Z,27.45
2018-12-26T19:32:50.378Z,29.02
2018-12-26T19:35:30.957Z,28.45
2018-12-26T19:38:11.619Z,28.23
2018-12-26T19:40:52.201Z,27.17
2018-12-26T19:43:33.149Z,26.17
2018-12-26T19:46:13.445Z,26.35
2018-12-26T19:48:54.299Z,26.70
2018-12-26T19:51:34.801Z,28.38
2018-12-26T19:54:15.853Z,27.00
2018-12-26T19:56:56.973Z,26.77
2018-12-26T19:59:38.145Z,26.07
2018-12-26T20:02:18.997Z,28.52
2018-12-26T20:04:59.825Z,27.30
2018-12-26T20:07:40.312Z,29.12
2018-12-26T20:10:21.378Z,27.87
2018-12-26T20:13:02.390Z,24.67
2018-12-26T20:15:42.885Z,26.52
2018-12-26T20:18:23.723Z,26.27
2018-12-26T20:21:04.205Z,25.95
2018-12-26T20:23:44.857Z,26.12
2018-12-26T20:26:25.749Z,25.57
2018-12-26T20:29:06.858Z,25.90
2018-12-26T20:31:48.005Z,27.60
2018-12-26T20:34:30.030Z,26.40
2018-12-26T20:37:10.714Z,26.70
2018-12-26T20:39:51.280Z,25.48
2018-12-26T20:42:31.865Z,25.72
2018-12-26T20:45:13.597Z,26.25
2018-12-26T20:47:54.302Z,25.95
2018-12-26T20:50:35.262Z,25.57
2018-12-26T20:53:15.834Z,24.77
2018-12-26T20:55:57.186Z,23.67
2018-12-26T20:58:37.741Z,23.38
2018-12-26T21:01:19.254Z,21.85
2018-12-26T21:03:59.629Z,22.32
2018-12-26T21:06:40.268Z,21.55
2018-12-26T21:09:21.130Z,22.50
2018-12-26T21:14:49.170Z,22.05
2018-12-26T21:17:29.657Z,22.93
2018-12-26T21:22:57.323Z,22.95
2018-12-26T21:25:38.429Z,22.48
2018-12-26T21:31:03.125Z,22.50
2018-12-26T21:36:29.974Z,22.80
2018-12-26T21:39:10.828Z,25.20
2018-12-26T21:41:52.062Z,23.32
2018-12-26T21:44:35.729Z,22.70
2018-12-26T21:47:17.130Z,21.60
2018-12-26T21:49:58.689Z,22.73
2018-12-26T21:52:39.941Z,21.45
2018-12-26T21:55:20.371Z,20.80
2018-12-26T21:58:00.905Z,21.90
2018-12-26T22:00:41.629Z,22.75
2018-12-26T22:03:23.202Z,21.48
2018-12-26T22:06:04.180Z,22.07
2018-12-26T22:11:26.966Z,23.73
2018-12-26T22:16:56.745Z,24.10
2018-12-26T22:19:37.981Z,21.82
2018-12-26T22:22:18.621Z,21.85
2018-12-26T22:24:59.415Z,21.12
2018-12-26T22:27:39.865Z,21.50
2018-12-26T22:30:20.724Z,20.10
2018-12-26T22:33:02.390Z,21.20
2018-12-26T22:35:43.598Z,20.25
2018-12-26T22:38:24.201Z,20.08
2018-12-26T22:43:52.854Z,20.88
2018-12-26T22:46:33.659Z,21.17
2018-12-26T22:49:15.330Z,21.85
2018-12-26T22:51:56.730Z,21.37
2018-12-26T22:54:37.846Z,21.30
2018-12-26T22:57:19.130Z,23.35
2018-12-26T22:59:59.594Z,22.73
2018-12-26T23:02:40.509Z,22.65
2018-12-26T23:05:20.882Z,24.15
2018-12-26T23:08:02.130Z,22.77
2018-12-26T23:10:42.745Z,22.60
2018-12-26T23:13:23.778Z,20.70
2018-12-26T23:16:04.617Z,21.23
2018-12-26T23:18:45.566Z,20.40
2018-12-26T23:21:26.355Z,21.17
2018-12-26T23:24:07.698Z,21.65
2018-12-26T23:29:41.685Z,19.73
2018-12-26T23:32:22.658Z,19.87
2018-12-26T23:35:03.396Z,19.85
2018-12-26T23:40:34.451Z,20.05
2018-12-26T23:43:15.641Z,18.85
2018-12-26T23:45:56.734Z,18.90
2018-12-26T23:48:37.566Z,19.37
2018-12-26T23:54:08.838Z,17.87
2018-12-26T23:59:33.985Z,17.40
